Terminal Aerodrome Forecast
Issued by NWS Quad Cities IA IL

Home | Current Version | Previous Version | Text Only | Print | Product List | Glossary On
Versions: 1 2 3 4 5 6 7 8 9 10 11 12 13 14 15 16 17 18
000
FTUS43 KDVN 281700 RRA
TAFMLI
TAF
KMLI 281743Z 2818/0118 13007KT P6SM FEW200
     FM282200 14007KT P6SM BKN150
     FM010000 15006KT P6SM VCSH FEW020 OVC040 PROB30 0103/0108 3SM
      -SN BKN020 OVC030
     FM010800 16007KT P6SM SCT025 OVC040=

USA.gov is the U.S. government's official web portal to all federal, state and local government web resources and services.